Baffin, Unorganized, Nunavut

5:05 PM CDT on September 04, 2015 (GMT -0500)
Eureka | | Change Station
CLOSE
Current Station
Airport
Location: Eureka,
Elevation: 33 ft
Nearby Weather Stations

Elev 33 ft 79.98 °N, 85.93 °W | Updated 5 minutes ago

Mostly Cloudy
Mostly Cloudy
36 °F
Feels Like 28 °F
N
12
Wind Variable Wind from NNW
Gusts 24 mph

Today
High -- | Low -- °F
--% Chance of Precip.
Yesterday
High -- | Low -- °F
Precip. -- in
3:08 AM 10:05 PM
Waning Gibbous, 55% visible
Pressure 29.96 in
Visibility 15.0 miles
Clouds Few 1500 ft
Scattered Clouds 4000 ft
Mostly Cloudy 8000 ft
Mostly Cloudy 20000 ft
Windchill 28 °F
Dew Point 27 °F
Humidity 70%
Rainfall 0.00 in
Snow Depth Not available.
UV 0 out of 12
Pollen Not available.
Air Quality Not available.
Flu Activity Not available.
METAR CWEU 042200Z 34010G21KT 15SM FEW015 SCT040 BKN080 BKN200 02/M03 A2995 RMK SC2SC2AC3CI1 ACSL ALQDS SLP144
Pressure 29.96 in
Visibility 15.0 miles
Clouds Few 1500 ft
Scattered Clouds 4000 ft
Mostly Cloudy 8000 ft
Mostly Cloudy 20000 ft
Windchill 28 °F
Dew Point 27 °F
Humidity 70%
Rainfall 0.00 in
Snow Depth Not available.
UV 0 out of 12
Pollen Not available.
Air Quality Not available.
Flu Activity Not available.
METAR CWEU 042200Z 34010G21KT 15SM FEW015 SCT040 BKN080 BKN200 02/M03 A2995 RMK SC2SC2AC3CI1 ACSL ALQDS SLP144

10-Day Weather Forecast

×

Almanac

Astronomy

Sep. 04, 2015 Rise Set
Actual Time
Civil Twilight
Nautical Twilight
Astronomical Twilight
Moon
Length of Visible Light
Length of Day
Tomorrow will be .
, % of the Moon is Illuminated

Today's Extremes

Country Highs Country Lows

Community

WunderPhotos

Upload Photos

1,852,305 photos uploaded!

WunderBlogs® & News

Nearby

Air Quality

  Air Quality AQ Index Pollutant
Not available.

Snow Depth

Station Depth Elevation

Earthquake Activity

City Distance Mag. Time & Date
Minimum magnitude displayed is 2.5.

Coastal Water Temperatures

Place Temperature

Stations

Nearby Weather Stations

Station Location Temp. Windchill Dew Point Humidity Wind Precip. Elev Updated Type